Terminal Aerodrome Forecast
Issued by NWS Cleveland, OH

Home | Current Version | Previous Version | Text Only | Print | Product List | Glossary Off
Versions: 1 2 3 4 5 6 7 8 9 10 11 12 13 14 15 16 17 18

000
FTUS41 KCLE 160500
TAFTOL
TAF
KTOL 160520Z 1606/1706 22004KT 2SM BR BKN003 OVC012
      TEMPO 1606/1609 1SM BR VV001
     FM160900 31004KT 3/4SM BR OVC003
      TEMPO 1609/1613 1/4SM FG VV001
     FM161500 34005KT 3SM BR SCT003 OVC008
     FM161600 34006KT 6SM BR SCT012 BKN025
     FM161800 33006KT P6SM SCT035
     FM170200 26003KT P6SM SKC=

USA.gov is the U.S. government's official web portal to all federal, state and local government web resources and services.